createdAt,value
2018-05-18T00:00:12.070Z,22.14
2018-05-18T00:01:12.098Z,22.14
2018-05-18T00:02:12.172Z,22.20
2018-05-18T00:03:12.167Z,22.14
2018-05-18T00:04:12.201Z,22.08
2018-05-18T00:05:12.233Z,22.19
2018-05-18T00:06:12.265Z,22.15
2018-05-18T00:07:12.300Z,22.14
2018-05-18T00:08:12.333Z,22.14
2018-05-18T00:09:12.364Z,22.10
2018-05-18T00:10:12.397Z,22.15
2018-05-18T00:11:12.428Z,22.08
2018-05-18T00:12:12.460Z,22.14
2018-05-18T00:13:12.528Z,22.11
2018-05-18T00:14:12.524Z,22.11
2018-05-18T00:15:12.558Z,22.05
2018-05-18T00:16:12.591Z,22.08
2018-05-18T00:17:12.624Z,22.05
2018-05-18T00:18:12.655Z,22.10
2018-05-18T00:19:12.688Z,22.07
2018-05-18T00:20:12.720Z,22.11
2018-05-18T00:21:12.752Z,22.03
2018-05-18T00:22:12.786Z,22.05
2018-05-18T00:23:12.820Z,21.99
2018-05-18T00:24:12.852Z,22.01
2018-05-18T00:25:12.902Z,22.05
2018-05-18T00:26:12.915Z,22.01
2018-05-18T00:27:12.947Z,21.98
2018-05-18T00:28:12.983Z,22.03
2018-05-18T00:29:13.014Z,22.05
2018-05-18T00:30:13.045Z,22.14
2018-05-18T00:31:13.078Z,22.08
2018-05-18T00:32:13.110Z,22.01
2018-05-18T00:33:13.143Z,22.05
2018-05-18T00:34:13.175Z,22.03
2018-05-18T00:35:13.208Z,22.03
2018-05-18T00:36:13.244Z,21.98
2018-05-18T00:37:13.272Z,22.01
2018-05-18T00:38:13.307Z,22.07
2018-05-18T00:39:13.338Z,22.07
2018-05-18T00:40:13.371Z,22.01
2018-05-18T00:41:13.402Z,22.03
2018-05-18T00:42:13.434Z,21.99
2018-05-18T00:43:13.469Z,22.03
2018-05-18T00:44:13.501Z,22.03
2018-05-18T00:45:13.533Z,22.03
2018-05-18T00:46:13.566Z,22.03
2018-05-18T00:47:13.599Z,22.03
2018-05-18T00:48:13.636Z,22.07
2018-05-18T00:49:13.663Z,22.04
2018-05-18T00:50:13.696Z,22.10
2018-05-18T00:51:13.728Z,22.13
2018-05-18T00:52:13.759Z,22.03
2018-05-18T00:53:13.794Z,22.11
2018-05-18T00:54:13.834Z,22.03
2018-05-18T00:55:13.864Z,22.04
2018-05-18T00:56:13.891Z,22.04
2018-05-18T00:57:13.925Z,22.01
2018-05-18T00:58:13.956Z,22.11
2018-05-18T00:59:13.988Z,22.11
2018-05-18T01:00:14.020Z,21.99
2018-05-18T01:01:14.053Z,22.10
2018-05-18T01:02:14.087Z,22.15
2018-05-18T01:03:14.116Z,22.05
2018-05-18T01:04:14.152Z,22.07
2018-05-18T01:05:14.182Z,22.01
2018-05-18T01:06:14.215Z,21.99
2018-05-18T01:07:14.248Z,22.07
2018-05-18T01:08:14.280Z,22.10
2018-05-18T01:09:14.314Z,22.03
2018-05-18T01:10:14.352Z,22.11
2018-05-18T01:11:14.378Z,22.03
2018-05-18T01:12:14.411Z,22.10
2018-05-18T01:13:14.526Z,22.01
2018-05-18T01:14:14.520Z,22.05
2018-05-18T01:15:14.558Z,22.10
2018-05-18T01:16:14.573Z,22.14
2018-05-18T01:17:14.601Z,22.11
2018-05-18T01:18:14.646Z,22.05
2018-05-18T01:19:14.664Z,22.17
2018-05-18T01:20:14.748Z,22.08
2018-05-18T01:21:14.719Z,22.11
2018-05-18T01:22:14.788Z,22.04
2018-05-18T01:23:14.866Z,22.01
2018-05-18T01:24:14.847Z,22.03
2018-05-18T01:25:14.869Z,22.15
2018-05-18T01:26:14.958Z,22.13
2018-05-18T01:27:14.926Z,22.13
2018-05-18T01:28:15.019Z,22.10
2018-05-18T01:29:14.999Z,22.05
2018-05-18T01:30:15.034Z,22.10
2018-05-18T01:31:15.062Z,22.15
2018-05-18T01:32:17.781Z,22.13
2018-05-18T01:33:15.092Z,22.07
2018-05-18T01:34:15.125Z,22.07
2018-05-18T01:35:15.158Z,22.07
2018-05-18T01:36:15.190Z,22.15
2018-05-18T01:37:15.223Z,22.17
2018-05-18T01:38:15.255Z,22.13
2018-05-18T01:39:15.292Z,22.07
2018-05-18T01:40:15.344Z,22.03
2018-05-18T01:41:15.355Z,22.07
2018-05-18T01:42:15.389Z,22.05
2018-05-18T01:43:15.418Z,22.04
2018-05-18T01:44:15.491Z,22.07
2018-05-18T01:45:15.479Z,22.04
2018-05-18T01:46:15.517Z,22.05
2018-05-18T01:47:15.552Z,22.05
2018-05-18T01:48:15.583Z,21.99
2018-05-18T01:49:15.612Z,22.04
2018-05-18T01:50:15.647Z,22.01
2018-05-18T01:51:15.695Z,22.07
2018-05-18T01:52:15.712Z,22.08
2018-05-18T01:53:15.743Z,22.05
2018-05-18T01:54:15.778Z,22.04
2018-05-18T01:55:15.808Z,22.01
2018-05-18T01:56:15.839Z,22.13
2018-05-18T01:57:15.872Z,22.07
2018-05-18T01:58:15.906Z,22.08
2018-05-18T01:59:15.943Z,22.08
2018-05-18T02:00:15.988Z,22.05
2018-05-18T02:01:16.003Z,22.01
2018-05-18T02:02:16.037Z,21.99
2018-05-18T02:03:16.068Z,22.07
2018-05-18T02:04:16.101Z,22.04
2018-05-18T02:05:16.137Z,22.07
2018-05-18T02:06:16.165Z,21.99
2018-05-18T02:07:16.198Z,22.10
2018-05-18T02:08:16.231Z,22.05
2018-05-18T02:09:16.263Z,22.03
2018-05-18T02:10:16.297Z,21.99
2018-05-18T02:11:16.381Z,22.07
2018-05-18T02:12:16.391Z,21.99
2018-05-18T02:13:16.393Z,22.05
2018-05-18T02:14:16.432Z,22.10
2018-05-18T02:15:16.457Z,21.99
2018-05-18T02:16:16.490Z,22.07
2018-05-18T02:17:16.523Z,21.99
2018-05-18T02:18:16.556Z,22.15
2018-05-18T02:19:16.588Z,22.03
2018-05-18T02:20:16.624Z,22.05
2018-05-18T02:21:16.652Z,22.20
2018-05-18T02:22:16.685Z,22.15
2018-05-18T02:23:16.718Z,22.04
2018-05-18T02:24:16.749Z,22.10
2018-05-18T02:25:16.783Z,22.11
2018-05-18T02:26:16.845Z,22.13
2018-05-18T02:27:16.848Z,22.17
2018-05-18T02:28:16.880Z,22.17
2018-05-18T02:29:16.913Z,22.14
2018-05-18T02:30:16.945Z,22.08
2018-05-18T02:31:16.976Z,22.11
2018-05-18T02:32:17.010Z,22.10
2018-05-18T02:33:17.044Z,22.10
2018-05-18T02:34:17.079Z,22.10
2018-05-18T02:35:17.110Z,22.08
2018-05-18T02:36:17.142Z,22.14
2018-05-18T02:37:17.227Z,22.17
2018-05-18T02:38:17.204Z,22.22
2018-05-18T02:39:17.238Z,22.08
2018-05-18T02:40:17.271Z,22.10
2018-05-18T02:41:17.304Z,22.13
2018-05-18T02:42:17.335Z,22.13
2018-05-18T02:43:17.369Z,22.11
2018-05-18T02:44:17.398Z,22.14
2018-05-18T02:45:17.432Z,22.11
2018-05-18T02:46:17.465Z,22.11
2018-05-18T02:47:17.499Z,22.07
2018-05-18T02:48:17.529Z,22.10
2018-05-18T02:49:17.563Z,22.11
2018-05-18T02:50:17.600Z,22.13
2018-05-18T02:51:17.628Z,22.13
2018-05-18T02:52:17.734Z,22.04
2018-05-18T02:53:17.695Z,22.10
2018-05-18T02:54:17.729Z,22.13
2018-05-18T02:55:17.759Z,22.01
2018-05-18T02:56:17.790Z,22.17
2018-05-18T02:57:17.823Z,22.07
2018-05-18T02:58:17.855Z,22.11
2018-05-18T02:59:17.888Z,22.04
2018-05-18T03:00:17.921Z,22.17
2018-05-18T03:01:17.957Z,22.11
2018-05-18T03:02:17.985Z,22.08
2018-05-18T03:03:18.020Z,22.08
2018-05-18T03:04:18.050Z,22.01
2018-05-18T03:05:18.082Z,22.10
2018-05-18T03:06:18.115Z,22.08
2018-05-18T03:07:18.148Z,22.03
2018-05-18T03:08:18.180Z,21.99
2018-05-18T03:09:18.213Z,22.03
2018-05-18T03:10:18.244Z,22.03
2018-05-18T03:11:18.289Z,22.04
2018-05-18T03:12:18.310Z,22.07
2018-05-18T03:13:18.343Z,22.01
2018-05-18T03:14:18.375Z,21.98
2018-05-18T03:15:18.406Z,22.11
2018-05-18T03:16:18.439Z,22.05
2018-05-18T03:17:18.473Z,21.98
2018-05-18T03:18:18.506Z,22.07
2018-05-18T03:19:18.540Z,22.14
2018-05-18T03:20:18.570Z,22.04
2018-05-18T03:21:18.609Z,21.96
2018-05-18T03:22:18.634Z,22.03
2018-05-18T03:23:18.670Z,22.05
2018-05-18T03:24:18.698Z,22.04
2018-05-18T03:25:18.732Z,21.96
2018-05-18T03:26:18.770Z,21.99
2018-05-18T03:27:18.798Z,21.95
2018-05-18T03:28:18.829Z,22.05
2018-05-18T03:29:18.863Z,22.01
2018-05-18T03:30:18.893Z,22.07
2018-05-18T03:31:18.927Z,22.01
2018-05-18T03:32:18.958Z,21.99
2018-05-18T03:33:18.991Z,22.01
2018-05-18T03:34:19.030Z,21.96
2018-05-18T03:35:19.055Z,22.04
2018-05-18T03:36:19.090Z,22.05
2018-05-18T03:37:19.122Z,21.93
2018-05-18T03:38:19.156Z,22.10
2018-05-18T03:39:19.186Z,22.08
2018-05-18T03:40:19.217Z,22.01
2018-05-18T03:41:19.251Z,22.05
2018-05-18T03:42:19.286Z,22.03
2018-05-18T03:43:19.317Z,21.99
2018-05-18T03:44:19.349Z,21.92
2018-05-18T03:45:19.380Z,21.98
2018-05-18T03:46:19.412Z,22.03
2018-05-18T03:47:19.446Z,22.03
2018-05-18T03:48:19.477Z,21.96
2018-05-18T03:49:19.511Z,21.99
2018-05-18T03:50:19.545Z,22.11
2018-05-18T03:51:19.575Z,21.98
2018-05-18T03:52:19.608Z,21.98
2018-05-18T03:53:19.638Z,22.03
2018-05-18T03:54:19.674Z,21.93
2018-05-18T03:55:19.706Z,22.07
2018-05-18T03:56:19.739Z,22.03
2018-05-18T03:57:19.770Z,22.10
2018-05-18T03:58:19.803Z,21.99
2018-05-18T03:59:19.840Z,21.99
2018-05-18T04:00:19.869Z,22.03
2018-05-18T04:01:19.930Z,22.10
2018-05-18T04:02:19.932Z,22.11
2018-05-18T04:03:19.969Z,22.07
2018-05-18T04:04:19.996Z,21.99
2018-05-18T04:05:20.030Z,22.13
2018-05-18T04:06:20.062Z,22.07
2018-05-18T04:07:20.093Z,22.13
2018-05-18T04:08:20.127Z,22.13
2018-05-18T04:09:20.163Z,22.10
2018-05-18T04:10:20.195Z,21.96
2018-05-18T04:11:20.225Z,22.03
2018-05-18T04:12:20.256Z,22.01
2018-05-18T04:13:20.290Z,22.13
2018-05-18T04:14:20.322Z,22.08
2018-05-18T04:15:20.358Z,21.96
2018-05-18T04:16:20.410Z,21.95
2018-05-18T04:17:20.424Z,22.03
2018-05-18T04:18:20.454Z,22.10
2018-05-18T04:19:20.486Z,22.10
2018-05-18T04:20:20.515Z,21.95
2018-05-18T04:21:20.548Z,22.07
2018-05-18T04:22:20.581Z,22.13
2018-05-18T04:23:20.616Z,22.03
2018-05-18T04:24:20.647Z,22.08
2018-05-18T04:25:20.741Z,22.10
2018-05-18T04:26:20.712Z,21.96
2018-05-18T04:27:20.748Z,21.96
2018-05-18T04:28:20.775Z,22.03
2018-05-18T04:29:20.808Z,22.07
2018-05-18T04:30:20.899Z,22.01
2018-05-18T04:31:20.873Z,22.10
2018-05-18T04:32:20.905Z,22.05
2018-05-18T04:33:20.939Z,21.96
2018-05-18T04:34:20.971Z,21.95
2018-05-18T04:35:21.004Z,22.04
2018-05-18T04:36:21.035Z,21.98
2018-05-18T04:37:21.067Z,21.95
2018-05-18T04:38:21.101Z,22.05
2018-05-18T04:39:21.139Z,22.08
2018-05-18T04:40:21.165Z,22.01
2018-05-18T04:41:21.197Z,22.08
2018-05-18T04:42:21.229Z,21.98
2018-05-18T04:43:21.283Z,21.99
2018-05-18T04:44:21.296Z,22.11
2018-05-18T04:45:21.329Z,22.04
2018-05-18T04:46:21.362Z,22.04
2018-05-18T04:47:21.396Z,21.99
2018-05-18T04:48:21.424Z,22.05
2018-05-18T04:49:21.456Z,22.03
2018-05-18T04:50:21.488Z,21.96
2018-05-18T04:51:21.524Z,21.95
2018-05-18T04:52:21.555Z,22.07
2018-05-18T04:53:21.589Z,22.01
2018-05-18T04:54:21.620Z,22.05
2018-05-18T04:55:21.652Z,22.03
2018-05-18T04:56:21.683Z,21.96
2018-05-18T04:57:21.715Z,21.99
2018-05-18T04:58:21.750Z,22.11
2018-05-18T04:59:21.780Z,22.05
2018-05-18T05:00:21.814Z,22.11
2018-05-18T05:01:21.845Z,22.08
2018-05-18T05:02:21.878Z,22.07
2018-05-18T05:03:21.910Z,22.11
2018-05-18T05:04:21.943Z,22.15
2018-05-18T05:05:22.058Z,22.11
2018-05-18T05:06:22.009Z,22.13
2018-05-18T05:07:22.040Z,22.11
2018-05-18T05:08:22.073Z,22.17
2018-05-18T05:09:22.105Z,22.17
2018-05-18T05:10:22.136Z,22.14
2018-05-18T05:11:22.171Z,22.17
2018-05-18T05:12:22.201Z,22.20
2018-05-18T05:13:22.234Z,22.17
2018-05-18T05:14:22.274Z,22.13
2018-05-18T05:15:22.349Z,22.15
2018-05-18T05:16:22.337Z,22.17
2018-05-18T05:17:22.363Z,22.20
2018-05-18T05:19:15.916Z,22.14
2018-05-18T05:20:15.961Z,22.22
2018-05-18T05:22:09.490Z,22.25
2018-05-18T05:23:09.508Z,22.25
2018-05-18T05:25:03.512Z,22.25
2018-05-18T05:26:03.079Z,22.22
2018-05-18T05:27:56.630Z,22.29
2018-05-18T05:28:56.650Z,22.30
2018-05-18T05:30:50.199Z,22.23
2018-05-18T05:31:50.275Z,22.26
2018-05-18T05:33:43.792Z,22.29
2018-05-18T05:34:43.792Z,22.33
2018-05-18T05:36:37.345Z,22.40
2018-05-18T05:37:37.362Z,22.43
2018-05-18T05:39:30.915Z,22.40
2018-05-18T05:40:30.930Z,22.38
2018-05-18T05:42:24.934Z,22.36
2018-05-18T05:43:24.506Z,22.43
2018-05-18T05:45:18.052Z,22.38
2018-05-18T05:46:18.073Z,22.44
2018-05-18T05:48:11.622Z,22.54
2018-05-18T05:49:11.642Z,22.45
2018-05-18T05:51:05.198Z,22.45
2018-05-18T05:52:05.218Z,22.51
2018-05-18T05:53:58.767Z,22.48
2018-05-18T05:54:58.786Z,22.54
2018-05-18T05:56:52.334Z,22.58
2018-05-18T05:57:52.355Z,22.53
2018-05-18T05:59:45.904Z,22.48
2018-05-18T06:00:45.925Z,22.58
2018-05-18T06:02:39.474Z,22.65
2018-05-18T06:03:39.495Z,22.65
2018-05-18T06:05:33.047Z,22.58
2018-05-18T06:06:33.068Z,22.59
2018-05-18T06:08:26.617Z,22.60
2018-05-18T06:09:26.635Z,22.54
2018-05-18T06:11:20.185Z,22.59
2018-05-18T06:12:20.247Z,22.65
2018-05-18T06:14:13.752Z,22.66
2018-05-18T06:15:13.778Z,22.56
2018-05-18T06:17:06.815Z,22.59
2018-05-18T06:18:06.834Z,22.65
2018-05-18T06:20:00.386Z,22.58
2018-05-18T06:21:00.406Z,22.58
2018-05-18T06:22:53.956Z,22.66
2018-05-18T06:23:53.976Z,22.59
2018-05-18T06:25:47.526Z,22.58
2018-05-18T06:26:47.550Z,22.62
2018-05-18T06:28:41.163Z,22.60
2018-05-18T06:29:41.116Z,22.56
2018-05-18T06:31:34.667Z,22.62
2018-05-18T06:32:34.688Z,22.48
2018-05-18T06:34:28.239Z,22.58
2018-05-18T06:35:28.258Z,22.62
2018-05-18T06:37:21.808Z,22.66
2018-05-18T06:38:21.828Z,22.62
2018-05-18T06:40:15.378Z,22.63
2018-05-18T06:41:15.487Z,22.66
2018-05-18T06:43:08.957Z,22.63
2018-05-18T06:44:08.969Z,22.60
2018-05-18T06:45:09.004Z,22.51
2018-05-18T06:46:09.034Z,22.51
2018-05-18T06:47:09.067Z,22.62
2018-05-18T06:48:09.101Z,22.60
2018-05-18T06:49:09.143Z,22.47
2018-05-18T06:50:09.166Z,22.59
2018-05-18T06:51:09.198Z,22.62
2018-05-18T06:52:09.232Z,22.62
2018-05-18T06:53:09.266Z,22.56
2018-05-18T06:54:09.301Z,22.54
2018-05-18T06:55:09.328Z,22.48
2018-05-18T06:57:02.802Z,22.60
2018-05-18T06:58:02.822Z,22.50
2018-05-18T06:59:56.379Z,22.50
2018-05-18T07:00:56.395Z,22.51
2018-05-18T07:02:49.943Z,22.59
2018-05-18T07:03:49.964Z,22.58
2018-05-18T07:05:43.513Z,22.53
2018-05-18T07:06:43.533Z,22.50
2018-05-18T07:08:37.084Z,22.59
2018-05-18T07:09:37.107Z,22.65
2018-05-18T07:11:30.653Z,22.63
2018-05-18T07:12:30.676Z,22.56
2018-05-18T07:14:24.224Z,22.58
2018-05-18T07:15:24.281Z,22.58
2018-05-18T07:17:17.794Z,22.60
2018-05-18T07:18:17.816Z,22.66
2018-05-18T07:20:11.365Z,22.58
2018-05-18T07:21:11.385Z,22.62
2018-05-18T07:23:05.420Z,22.60
2018-05-18T07:24:04.967Z,22.66
2018-05-18T07:25:05.013Z,22.68
2018-05-18T07:26:05.030Z,22.56
2018-05-18T07:27:05.081Z,22.58
2018-05-18T07:28:05.090Z,22.60
2018-05-18T07:29:05.123Z,22.54
2018-05-18T07:30:05.242Z,22.58
2018-05-18T07:31:05.187Z,22.63
2018-05-18T07:32:05.219Z,22.59
2018-05-18T07:33:05.254Z,22.59
2018-05-18T07:34:05.285Z,22.58
2018-05-18T07:35:05.318Z,22.60
2018-05-18T07:36:05.410Z,22.65
2018-05-18T07:37:05.383Z,22.60
2018-05-18T07:38:05.415Z,22.54
2018-05-18T07:39:05.444Z,22.59
2018-05-18T07:40:05.483Z,22.58
2018-05-18T07:41:05.517Z,22.60
2018-05-18T07:42:05.550Z,22.58
2018-05-18T07:43:05.581Z,22.65
2018-05-18T07:44:05.615Z,22.54
2018-05-18T07:45:05.649Z,22.63
2018-05-18T07:46:05.678Z,22.65
2018-05-18T07:47:05.712Z,22.56
2018-05-18T07:48:05.745Z,22.60
2018-05-18T07:49:05.783Z,22.60
2018-05-18T07:50:05.816Z,22.68
2018-05-18T07:51:05.844Z,22.59
2018-05-18T07:52:05.877Z,22.63
2018-05-18T07:53:05.909Z,22.65
2018-05-18T07:54:05.941Z,22.63
2018-05-18T07:55:05.976Z,22.66
2018-05-18T07:56:06.008Z,22.60
2018-05-18T07:57:06.044Z,22.54
2018-05-18T07:58:06.073Z,22.62
2018-05-18T07:59:06.106Z,22.65
2018-05-18T08:00:06.141Z,22.63
2018-05-18T08:01:06.172Z,22.65
2018-05-18T08:02:06.206Z,22.65
2018-05-18T08:03:06.237Z,22.65
2018-05-18T08:04:06.271Z,22.69
2018-05-18T08:05:06.303Z,22.65
2018-05-18T08:06:59.829Z,22.69
2018-05-18T08:07:59.852Z,22.66
2018-05-18T08:09:53.398Z,22.66
2018-05-18T08:10:53.420Z,22.65
2018-05-18T08:12:46.970Z,22.65
2018-05-18T08:13:46.991Z,22.68
2018-05-18T08:15:40.542Z,22.68
2018-05-18T08:16:40.563Z,22.65
2018-05-18T08:17:40.598Z,22.69
2018-05-18T08:18:40.629Z,22.69
2018-05-18T08:19:40.659Z,22.66
2018-05-18T08:20:40.694Z,22.69
2018-05-18T08:21:40.794Z,22.66
2018-05-18T08:22:40.758Z,22.65
2018-05-18T08:23:40.797Z,22.65
2018-05-18T08:24:40.823Z,22.70
2018-05-18T08:25:40.861Z,22.68
2018-05-18T08:26:40.890Z,22.59
2018-05-18T08:27:41.049Z,22.69
2018-05-18T08:28:40.960Z,22.70
2018-05-18T08:29:40.991Z,22.68
2018-05-18T08:30:41.022Z,22.68
2018-05-18T08:31:41.056Z,22.65
2018-05-18T08:32:41.088Z,22.70
2018-05-18T08:33:41.124Z,22.68
2018-05-18T08:34:41.159Z,22.68
2018-05-18T08:35:41.188Z,22.65
2018-05-18T08:36:41.219Z,22.66
2018-05-18T08:37:41.253Z,22.62
2018-05-18T08:38:41.285Z,22.65
2018-05-18T08:39:41.316Z,22.62
2018-05-18T08:40:41.349Z,22.68
2018-05-18T08:41:41.385Z,22.68
2018-05-18T08:42:41.420Z,22.68
2018-05-18T08:43:41.448Z,22.69
2018-05-18T08:44:41.481Z,22.70
2018-05-18T08:45:41.516Z,22.68
2018-05-18T08:46:41.548Z,22.69
2018-05-18T08:47:41.580Z,22.69
2018-05-18T08:48:41.613Z,22.69
2018-05-18T08:49:41.643Z,22.68
2018-05-18T08:50:41.684Z,22.65
2018-05-18T08:51:41.711Z,22.69
2018-05-18T08:52:41.744Z,22.65
2018-05-18T08:53:41.785Z,22.66
2018-05-18T08:54:41.809Z,22.68
2018-05-18T08:55:41.842Z,22.65
2018-05-18T08:56:41.877Z,22.65
2018-05-18T08:57:41.910Z,22.65
2018-05-18T08:58:41.942Z,22.65
2018-05-18T08:59:41.974Z,22.68
2018-05-18T09:00:42.019Z,22.65
2018-05-18T09:01:42.042Z,22.66
2018-05-18T09:02:42.072Z,22.68
2018-05-18T09:03:42.105Z,22.65
2018-05-18T09:04:42.138Z,22.68
2018-05-18T09:05:42.173Z,22.63
2018-05-18T09:06:42.207Z,22.70
2018-05-18T09:07:42.237Z,22.62
2018-05-18T09:08:42.270Z,22.70
2018-05-18T09:09:42.304Z,22.65
2018-05-18T09:10:42.370Z,22.60
2018-05-18T09:11:42.368Z,22.65
2018-05-18T09:12:42.403Z,22.68
2018-05-18T09:13:42.437Z,22.63
2018-05-18T09:14:42.466Z,22.68
2018-05-18T09:15:42.499Z,22.66
2018-05-18T09:16:42.532Z,22.60
2018-05-18T09:17:42.567Z,22.65
2018-05-18T09:18:42.598Z,22.68
2018-05-18T09:19:42.631Z,22.63
2018-05-18T09:20:42.663Z,22.68
2018-05-18T09:21:42.699Z,22.66
2018-05-18T09:22:42.731Z,22.66
2018-05-18T09:23:42.763Z,22.65
2018-05-18T09:24:42.794Z,22.70
2018-05-18T09:25:42.831Z,22.68
2018-05-18T09:26:42.861Z,22.68
2018-05-18T09:27:42.895Z,22.65
2018-05-18T09:28:42.926Z,22.65
2018-05-18T09:29:42.959Z,22.65
2018-05-18T09:30:42.996Z,22.69
2018-05-18T09:31:43.031Z,22.66
2018-05-18T09:32:43.057Z,22.66
2018-05-18T09:33:43.095Z,22.68
2018-05-18T09:34:43.131Z,22.68
2018-05-18T09:35:43.155Z,22.65
2018-05-18T09:36:43.194Z,22.70
2018-05-18T09:37:43.225Z,22.68
2018-05-18T09:38:43.254Z,22.65
2018-05-18T09:39:43.290Z,22.63
2018-05-18T09:40:43.324Z,22.66
2018-05-18T09:41:43.355Z,22.65
2018-05-18T09:42:43.387Z,22.66
2018-05-18T09:43:43.421Z,22.65
2018-05-18T09:44:43.453Z,22.66
2018-05-18T09:45:43.487Z,22.66
2018-05-18T09:46:43.517Z,22.66
2018-05-18T09:47:43.548Z,22.68
2018-05-18T09:48:43.582Z,22.62
2018-05-18T09:49:43.620Z,22.69
2018-05-18T09:50:43.651Z,22.69
2018-05-18T09:51:43.682Z,22.63
2018-05-18T09:52:43.715Z,22.69
2018-05-18T09:53:43.759Z,22.68
2018-05-18T09:54:43.907Z,22.63
2018-05-18T09:55:43.818Z,22.66
2018-05-18T09:56:43.845Z,22.63
2018-05-18T09:57:43.878Z,22.68
2018-05-18T09:58:43.911Z,22.69
2018-05-18T09:59:43.943Z,22.65
2018-05-18T10:00:43.987Z,22.66
2018-05-18T10:01:44.013Z,22.69
2018-05-18T10:02:44.043Z,22.65
2018-05-18T10:03:44.074Z,22.68
2018-05-18T10:04:44.109Z,22.66
2018-05-18T10:05:44.144Z,22.68
2018-05-18T10:06:44.174Z,22.63
2018-05-18T10:07:44.206Z,22.65
2018-05-18T10:08:44.239Z,22.65
2018-05-18T10:09:44.285Z,22.66
2018-05-18T10:10:44.306Z,22.65
2018-05-18T10:11:44.339Z,22.66
2018-05-18T10:12:44.373Z,22.56
2018-05-18T10:13:44.408Z,22.63
2018-05-18T10:14:44.436Z,22.56
2018-05-18T10:15:44.471Z,22.63
2018-05-18T10:16:44.502Z,22.65
2018-05-18T10:17:44.535Z,22.65
2018-05-18T10:18:44.567Z,22.63
2018-05-18T10:19:44.600Z,22.68
2018-05-18T10:20:44.631Z,22.65
2018-05-18T10:21:44.666Z,22.65
2018-05-18T10:22:44.698Z,22.63
2018-05-18T10:23:44.733Z,22.68
2018-05-18T10:24:44.764Z,22.66
2018-05-18T10:25:44.796Z,22.65
2018-05-18T10:26:44.829Z,22.63
2018-05-18T10:27:44.864Z,22.65
2018-05-18T10:28:44.896Z,22.63
2018-05-18T10:29:44.932Z,22.63
2018-05-18T10:30:45.012Z,22.65
2018-05-18T10:31:44.994Z,22.65
2018-05-18T10:32:45.128Z,22.66
2018-05-18T10:33:45.093Z,22.60
2018-05-18T10:34:45.095Z,22.56
2018-05-18T10:35:45.125Z,22.63
2018-05-18T10:36:45.166Z,22.65
2018-05-18T10:37:45.207Z,22.65
2018-05-18T10:38:45.224Z,22.60
2018-05-18T10:39:45.369Z,22.63
2018-05-18T10:40:45.291Z,22.60
2018-05-18T10:41:45.321Z,22.66
2018-05-18T10:42:45.364Z,22.68
2018-05-18T10:43:45.391Z,22.65
2018-05-18T10:44:45.422Z,22.65
2018-05-18T10:45:45.459Z,22.65
2018-05-18T10:46:45.488Z,22.65
2018-05-18T10:47:45.522Z,22.66
2018-05-18T10:48:45.553Z,22.63
2018-05-18T10:49:45.589Z,22.65
2018-05-18T10:50:45.622Z,22.66
2018-05-18T10:51:45.653Z,22.56
2018-05-18T10:52:45.685Z,22.68
2018-05-18T10:53:45.722Z,22.65
2018-05-18T10:54:45.750Z,22.56
2018-05-18T10:55:45.782Z,22.59
2018-05-18T10:56:45.814Z,22.54
2018-05-18T10:57:45.847Z,22.54
2018-05-18T10:58:45.882Z,22.63
2018-05-18T10:59:45.913Z,22.65
2018-05-18T11:00:45.949Z,22.58
2018-05-18T11:01:45.992Z,22.54
2018-05-18T11:02:46.016Z,22.68
2018-05-18T11:03:46.044Z,22.58
2018-05-18T11:04:46.081Z,22.63
2018-05-18T11:05:46.116Z,22.63
2018-05-18T11:06:46.145Z,22.56
2018-05-18T11:07:46.182Z,22.63
2018-05-18T11:08:46.210Z,22.62
2018-05-18T11:09:46.246Z,22.65
2018-05-18T11:10:46.276Z,22.69
2018-05-18T11:11:46.310Z,22.60
2018-05-18T11:12:46.342Z,22.60
2018-05-18T11:13:46.378Z,22.65
2018-05-18T11:14:46.410Z,22.62
2018-05-18T11:15:46.447Z,22.54
2018-05-18T11:16:46.489Z,22.68
2018-05-18T11:17:46.559Z,22.62
2018-05-18T11:18:46.541Z,22.65
2018-05-18T11:19:46.570Z,22.65
2018-05-18T11:20:46.604Z,22.69
2018-05-18T11:21:46.636Z,22.65
2018-05-18T11:22:46.675Z,22.65
2018-05-18T11:23:46.708Z,22.63
2018-05-18T11:24:46.738Z,22.63
2018-05-18T11:25:46.768Z,22.68
2018-05-18T11:26:46.807Z,22.68
2018-05-18T11:27:46.838Z,22.56
2018-05-18T11:28:46.875Z,22.63
2018-05-18T11:29:46.902Z,22.63
2018-05-18T11:30:46.937Z,22.60
2018-05-18T11:31:46.968Z,22.54
2018-05-18T11:32:46.998Z,22.66
2018-05-18T11:33:47.035Z,22.66
2018-05-18T11:34:47.065Z,22.56
2018-05-18T11:35:47.096Z,22.68
2018-05-18T11:36:47.129Z,22.54
2018-05-18T11:37:47.181Z,22.68
2018-05-18T11:38:47.196Z,22.65
2018-05-18T11:39:47.228Z,22.68
2018-05-18T11:40:47.261Z,22.53
2018-05-18T11:41:47.353Z,22.66
2018-05-18T11:42:47.327Z,22.70
2018-05-18T11:43:47.361Z,22.65
2018-05-18T11:44:47.394Z,22.68
2018-05-18T11:45:47.437Z,22.70
2018-05-18T11:46:47.456Z,22.65
2018-05-18T11:47:47.490Z,22.68
2018-05-18T11:48:47.526Z,22.65
2018-05-18T11:49:47.577Z,22.68
2018-05-18T11:50:47.592Z,22.65
2018-05-18T11:51:47.626Z,22.65
2018-05-18T11:52:47.654Z,22.65
2018-05-18T11:53:47.699Z,22.66
2018-05-18T11:54:47.815Z,22.62
2018-05-18T11:55:47.757Z,22.65
2018-05-18T11:56:47.786Z,22.66
2018-05-18T11:57:47.828Z,22.65
2018-05-18T11:58:47.852Z,22.68
2018-05-18T11:59:47.886Z,22.70
2018-05-18T12:00:47.921Z,22.65
2018-05-18T12:01:47.970Z,22.66
2018-05-18T12:02:48.015Z,22.66
2018-05-18T12:04:41.487Z,22.66
2018-05-18T12:05:41.508Z,22.66
2018-05-18T12:07:35.056Z,22.65
2018-05-18T12:08:35.111Z,22.70
2018-05-18T12:10:28.632Z,22.68
2018-05-18T12:11:28.645Z,22.69
2018-05-18T12:13:22.196Z,22.66
2018-05-18T12:14:22.215Z,22.63
2018-05-18T12:16:15.766Z,22.66
2018-05-18T12:17:15.792Z,22.65
2018-05-18T12:19:09.338Z,22.65
2018-05-18T12:20:09.358Z,22.63
2018-05-18T12:22:02.906Z,22.68
2018-05-18T12:23:02.927Z,22.65
2018-05-18T12:24:56.475Z,22.68
2018-05-18T12:25:56.503Z,22.68
2018-05-18T12:27:50.127Z,22.68
2018-05-18T12:28:50.092Z,22.65
2018-05-18T12:30:43.664Z,22.69
2018-05-18T12:31:43.757Z,22.66
2018-05-18T12:33:37.264Z,22.70
2018-05-18T12:34:37.226Z,22.62
2018-05-18T12:36:30.845Z,22.65
2018-05-18T12:37:30.788Z,22.65
2018-05-18T12:39:24.369Z,22.65
2018-05-18T12:40:24.356Z,22.66
2018-05-18T12:42:17.904Z,22.63
2018-05-18T12:43:17.955Z,22.63
2018-05-18T12:45:11.471Z,22.69
2018-05-18T12:46:11.497Z,22.65
2018-05-18T12:48:05.041Z,22.65
2018-05-18T12:49:05.066Z,22.65
2018-05-18T12:50:58.611Z,22.65
2018-05-18T12:51:58.634Z,22.63
2018-05-18T12:53:52.181Z,22.68
2018-05-18T12:54:52.202Z,22.70
2018-05-18T12:56:45.753Z,22.66
2018-05-18T12:57:45.773Z,22.65
2018-05-18T12:59:39.322Z,22.68
2018-05-18T13:00:39.344Z,22.68
2018-05-18T13:02:32.893Z,22.60
2018-05-18T13:03:32.914Z,22.68
2018-05-18T13:05:26.464Z,22.63
2018-05-18T13:06:26.482Z,22.65
2018-05-18T13:08:20.122Z,22.62
2018-05-18T13:09:20.054Z,22.65
2018-05-18T13:11:13.709Z,22.68
2018-05-18T13:12:13.644Z,22.63
2018-05-18T13:14:07.228Z,22.63
2018-05-18T13:15:07.215Z,22.60
2018-05-18T13:17:00.818Z,22.66
2018-05-18T13:18:00.783Z,22.66
2018-05-18T13:19:54.316Z,22.68
2018-05-18T13:20:54.342Z,22.63
2018-05-18T13:22:48.339Z,22.68
2018-05-18T13:23:47.909Z,22.69
2018-05-18T13:25:41.457Z,22.69
2018-05-18T13:26:41.484Z,22.65
2018-05-18T13:28:35.027Z,22.66
2018-05-18T13:29:35.048Z,22.69
2018-05-18T13:31:28.597Z,22.60
2018-05-18T13:32:28.619Z,22.62
2018-05-18T13:34:22.169Z,22.65
2018-05-18T13:35:22.189Z,22.70
2018-05-18T13:37:15.739Z,22.69
2018-05-18T13:38:15.758Z,22.65
2018-05-18T13:40:09.308Z,22.63
2018-05-18T13:41:09.329Z,22.69
2018-05-18T13:43:02.879Z,22.63
2018-05-18T13:44:02.900Z,22.62
2018-05-18T13:45:56.449Z,22.65
2018-05-18T13:46:56.470Z,22.63
2018-05-18T13:48:50.021Z,22.68
2018-05-18T13:49:50.040Z,22.68
2018-05-18T13:51:43.679Z,22.68
2018-05-18T13:52:43.612Z,22.66
2018-05-18T13:54:37.161Z,22.68
2018-05-18T13:55:37.183Z,22.68
2018-05-18T13:57:30.220Z,22.66
2018-05-18T13:58:30.241Z,22.65
2018-05-18T14:00:23.790Z,22.63
2018-05-18T14:01:23.811Z,22.65
2018-05-18T14:03:17.366Z,22.63
2018-05-18T14:04:17.385Z,22.62
2018-05-18T14:06:10.418Z,22.63
2018-05-18T14:07:10.443Z,22.62
2018-05-18T14:09:03.991Z,22.68
2018-05-18T14:10:04.014Z,22.72
2018-05-18T14:11:57.566Z,22.68